Watkins Glen, New York
Current Conditions -  °F | °C
As of 1:53 PM on Friday 24 Oct 2014 (Local Time) from KELM Reporting Station
Clear Clear  
Wind Chill: 64°   Ceiling: Unl
Heat Index: 64°   Visibility: 10mi
Dew Point: 41°   Wind: 7mph
Humidity: 43%   Direction: 330°NNW
Pressure: 29.89"   Gusts: 17mph
Location:  42.38°N, 76.87°W
Report Text: KELM 241753Z 33006G15KT 10SM CLR 18/05 A2989 RMK AO2 SLP123 T01780050 10178 20039 58019
Loading
Personal Weather Stations






























Interactive Weather Map
Tropical Storm Tracking
New forecast layout! Learn more

10-Day Weather Forecast

Advertisements
Track Severe Weather on mobile